Time;durP1;ratioP1;P1;durP2;ratioP2;P2;SDS_P1;SDS_P2;PMS_P1;PMS_P2;Temp;Humidity;BMP_temperature;BMP_pressure;BME280_temperature;BME280_humidity;BME280_pressure;Samples;Min_cycle;Max_cycle;Signal;HPM_P1;HPM_P2
2024/03/22 00:01:45;;;;;;;38.17;22.40;;;10.90;99.90;;;10.23;100.00;102145.81;4119890;28;20031;-69
2024/03/22 00:03:46;;;;;;;43.35;22.60;;;10.90;99.90;;;10.23;100.00;102145.81;4105166;28;20035;-69
2024/03/22 00:05:47;;;;;;;39.72;21.90;;;10.90;99.90;;;10.18;100.00;102140.06;4108965;28;20031;-69
2024/03/22 00:07:48;;;;;;;63.20;21.40;;;10.80;99.90;;;10.17;100.00;102142.81;4119905;28;20049;-69
2024/03/22 00:09:49;;;;;;;35.83;19.75;;;10.80;99.90;;;10.11;100.00;102144.09;4119465;28;20027;-69
2024/03/22 00:11:50;;;;;;;46.50;22.52;;;10.80;99.90;;;10.10;100.00;102144.19;4119602;28;20042;-69
2024/03/22 00:13:51;;;;;;;101.00;23.05;;;10.70;99.90;;;10.00;100.00;102134.34;4119825;28;20487;-69
2024/03/22 00:15:51;;;;;;;62.95;21.60;;;10.70;99.90;;;10.05;100.00;102141.09;4118632;28;20038;-69
2024/03/22 00:17:52;;;;;;;33.60;22.08;;;10.70;99.90;;;10.01;100.00;102141.31;4118565;28;20030;-69
2024/03/22 00:19:53;;;;;;;31.30;20.05;;;10.60;99.90;;;10.00;100.00;102131.72;4118420;28;20029;-69
2024/03/22 00:21:54;;;;;;;66.78;20.77;;;10.70;99.90;;;10.01;100.00;102137.84;4137621;28;20065;-69
2024/03/22 00:23:56;;;;;;;39.58;21.73;;;10.70;99.90;;;10.04;100.00;102137.59;4122818;28;20027;-69
2024/03/22 00:25:57;;;;;;;117.10;25.35;;;10.70;99.90;;;10.03;100.00;102134.13;4123036;28;20034;-69
2024/03/22 00:27:57;;;;;;;65.45;23.10;;;10.70;99.90;;;10.03;100.00;102130.66;4121563;28;20442;-69
2024/03/22 00:29:58;;;;;;;49.70;23.15;;;10.70;99.90;;;10.05;100.00;102136.66;4121571;28;20084;-69
2024/03/22 00:31:59;;;;;;;67.68;22.55;;;10.60;99.90;;;10.01;100.00;102130.78;4122559;28;20042;-69
2024/03/22 00:34:00;;;;;;;44.40;20.90;;;10.60;99.90;;;9.99;100.00;102131.84;4121677;28;20034;-69
2024/03/22 00:36:01;;;;;;;51.83;22.45;;;10.60;99.90;;;9.96;100.00;102118.91;4107156;28;20023;-69
2024/03/22 00:38:02;;;;;;;33.30;20.15;;;10.60;99.90;;;9.98;100.00;102124.91;4112328;28;20022;-69
2024/03/22 00:40:04;;;;;;;37.85;19.55;;;10.60;99.90;;;9.93;100.00;102117.34;4122590;28;20038;-69
2024/03/22 00:42:05;;;;;;;61.95;23.90;;;10.60;99.90;;;9.96;100.00;102132.09;4122802;28;20438;-69
2024/03/22 00:44:05;;;;;;;38.13;20.65;;;10.60;99.90;;;9.94;100.00;102124.31;4122608;28;20023;-69
2024/03/22 00:46:07;;;;;;;40.22;18.92;;;10.60;99.90;;;9.93;100.00;102122.63;4122677;28;20033;-69
2024/03/22 00:48:08;;;;;;;47.70;20.10;;;10.60;99.90;;;9.94;100.00;102113.78;4120982;28;20037;-69
2024/03/22 00:50:09;;;;;;;55.83;19.52;;;10.60;99.90;;;9.91;100.00;102121.91;4122420;28;20023;-69
2024/03/22 00:52:10;;;;;;;88.53;20.65;;;10.50;99.90;;;9.84;100.00;102112.78;4122264;28;20069;-69
2024/03/22 00:54:11;;;;;;;36.90;18.30;;;10.50;99.90;;;9.86;100.00;102115.28;4122302;28;20618;-69
2024/03/22 00:56:12;;;;;;;41.63;18.92;;;10.50;99.90;;;9.87;100.00;102114.34;4122462;28;20501;-69
2024/03/22 00:58:13;;;;;;;29.83;16.70;;;10.50;99.90;;;9.88;100.00;102110.75;4121299;28;20027;-69
2024/03/22 01:00:15;;;;;;;44.60;19.23;;;10.50;99.90;;;9.86;100.00;102107.38;4122183;28;20058;-69
2024/03/22 01:02:16;;;;;;;103.25;21.60;;;10.50;99.90;;;9.80;100.00;102098.16;4121533;28;20030;-69
2024/03/22 01:04:17;;;;;;;28.58;16.25;;;10.50;99.90;;;9.87;100.00;102109.91;4122368;28;20031;-69
2024/03/22 01:06:23;;;;;;;25.52;15.98;;;10.40;99.90;;;9.86;100.00;102100.31;4121048;28;20038;-69
2024/03/22 01:08:24;;;;;;;28.20;15.85;;;10.50;99.90;;;9.89;100.00;102108.00;4121841;28;20035;-70
2024/03/22 01:10:25;;;;;;;49.75;19.67;;;10.50;99.90;;;9.84;100.00;102091.72;4122205;28;20027;-70
2024/03/22 01:12:26;;;;;;;24.08;15.57;;;10.40;99.90;;;9.83;100.00;102094.44;4122135;28;20023;-70
2024/03/22 01:14:26;;;;;;;26.67;14.65;;;10.40;99.90;;;9.83;100.00;102095.28;4122139;28;20026;-69
2024/03/22 01:16:27;;;;;;;49.70;17.17;;;10.40;99.90;;;9.83;100.00;102089.19;4122109;28;20194;-70
2024/03/22 01:18:28;;;;;;;26.38;15.98;;;10.50;99.90;;;9.86;100.00;102091.56;4122156;28;20026;-69
2024/03/22 01:20:29;;;;;;;23.48;15.88;;;10.40;99.90;;;9.85;100.00;102087.28;4122132;28;20479;-69
2024/03/22 01:22:30;;;;;;;29.35;17.75;;;10.50;99.90;;;9.86;100.00;102083.66;4122056;28;20057;-69
2024/03/22 01:24:31;;;;;;;61.45;18.58;;;10.50;99.90;;;9.80;100.00;102077.06;4121701;28;20035;-69
2024/03/22 01:26:32;;;;;;;43.30;17.85;;;10.40;99.90;;;9.79;100.00;102078.06;4122446;28;20031;-69
2024/03/22 01:28:32;;;;;;;27.27;16.38;;;10.40;99.90;;;9.81;100.00;102076.13;4122048;28;20035;-69
2024/03/22 01:30:34;;;;;;;23.48;14.32;;;10.40;99.90;;;9.83;100.00;102076.84;4121938;28;20042;-69
2024/03/22 01:32:36;;;;;;;51.75;17.45;;;10.40;99.90;;;9.80;100.00;102068.34;4120647;28;20417;-69
2024/03/22 01:34:37;;;;;;;38.25;17.20;;;10.40;99.90;;;9.75;100.00;102065.22;4121881;28;20487;-69
2024/03/22 01:36:38;;;;;;;24.95;15.13;;;10.40;99.90;;;9.73;100.00;102068.00;4121894;28;20085;-69
2024/03/22 01:38:39;;;;;;;46.75;16.90;;;10.40;99.90;;;9.71;100.00;102066.41;4121596;28;20022;-69
2024/03/22 01:40:39;;;;;;;36.85;15.48;;;10.30;99.90;;;9.64;100.00;102059.94;4121737;28;20030;-69
2024/03/22 01:42:40;;;;;;;62.65;15.07;;;10.30;99.90;;;9.59;100.00;102057.66;4121737;28;20035;-69
2024/03/22 01:44:41;;;;;;;23.75;13.00;;;10.30;99.90;;;9.44;100.00;102049.13;4121801;28;20159;-69
2024/03/22 01:46:44;;;;;;;31.38;14.00;;;10.20;99.90;;;9.44;100.00;102054.41;4121727;28;20051;-69
2024/03/22 01:48:45;;;;;;;49.30;13.25;;;10.20;99.90;;;9.39;100.00;102051.28;4120164;28;20023;-69
2024/03/22 01:50:46;;;;;;;54.92;13.68;;;10.10;99.90;;;9.33;100.00;102045.63;4120427;28;20027;-69
2024/03/22 01:52:47;;;;;;;56.92;14.50;;;10.10;99.90;;;9.28;100.00;102048.63;4120435;28;20426;-69
2024/03/22 01:54:49;;;;;;;75.53;16.00;;;10.00;99.90;;;9.25;100.00;102054.13;4120202;28;20119;-69
2024/03/22 01:56:50;;;;;;;31.95;12.57;;;10.00;99.90;;;9.21;100.00;102050.03;4121631;28;20023;-69
2024/03/22 01:58:51;;;;;;;27.45;12.45;;;9.90;99.90;;;9.23;100.00;102053.38;4121329;28;20045;-69
2024/03/22 02:00:52;;;;;;;25.95;12.98;;;9.90;99.90;;;9.23;100.00;102047.28;4121546;28;20499;-69
2024/03/22 02:02:53;;;;;;;45.72;13.32;;;9.90;99.90;;;9.19;100.00;102048.47;4121438;28;20023;-69
2024/03/22 02:04:54;;;;;;;36.67;13.55;;;9.90;99.90;;;9.20;100.00;102043.06;4120870;28;20045;-69
2024/03/22 02:06:54;;;;;;;34.33;12.27;;;9.80;99.90;;;9.21;100.00;102038.66;4119965;28;20022;-69
2024/03/22 02:08:57;;;;;;;21.73;12.55;;;9.80;99.90;;;9.18;100.00;102029.19;4119753;28;20041;-69
2024/03/22 02:10:58;;;;;;;29.35;12.88;;;9.80;99.90;;;9.20;100.00;102027.28;4120138;28;20038;-69
2024/03/22 02:12:59;;;;;;;32.42;13.30;;;9.80;99.90;;;9.18;100.00;102015.19;4121417;28;20574;-70
2024/03/22 02:15:01;;;;;;;40.00;13.98;;;9.80;99.90;;;9.16;100.00;102012.69;4119942;28;20027;-70
2024/03/22 02:17:02;;;;;;;18.85;11.27;;;9.80;99.90;;;9.13;100.00;102007.66;4120128;28;20027;-70
2024/03/22 02:19:03;;;;;;;23.55;12.98;;;9.80;99.90;;;9.20;100.00;102005.41;4121208;28;20102;-70
2024/03/22 02:21:04;;;;;;;26.08;12.45;;;9.80;99.90;;;9.20;100.00;102000.16;4121254;28;20019;-70
2024/03/22 02:23:05;;;;;;;29.73;12.82;;;9.80;99.90;;;9.23;100.00;101991.97;4119638;28;20549;-69
2024/03/22 02:25:07;;;;;;;22.83;11.98;;;9.80;99.90;;;9.23;100.00;101994.63;4121165;28;20027;-69
2024/03/22 02:27:08;;;;;;;45.13;13.30;;;9.80;99.90;;;9.23;100.00;101997.25;4121109;28;20113;-69
2024/03/22 02:29:09;;;;;;;46.67;15.18;;;9.80;99.90;;;9.23;100.00;101994.63;4121009;28;20031;-69
2024/03/22 02:31:10;;;;;;;26.23;12.52;;;9.80;99.90;;;9.22;100.00;101995.59;4119661;28;20070;-69
2024/03/22 02:33:11;;;;;;;25.38;12.35;;;9.80;99.90;;;9.21;100.00;101994.75;4119714;28;20035;-69
2024/03/22 02:35:11;;;;;;;46.85;13.82;;;9.80;99.90;;;9.24;100.00;101988.41;4120988;28;20034;-69
2024/03/22 02:37:12;;;;;;;17.95;11.23;;;9.80;99.90;;;9.23;100.00;101991.97;4120879;28;20022;-69
2024/03/22 02:39:13;;;;;;;28.13;12.23;;;9.80;99.90;;;9.22;100.00;101985.91;4120366;28;20449;-69
2024/03/22 02:41:14;;;;;;;22.17;11.80;;;9.80;99.90;;;9.21;100.00;101988.63;4120846;28;20399;-69
2024/03/22 02:43:15;;;;;;;32.72;12.98;;;9.80;99.90;;;9.23;100.00;101990.19;4120305;28;20050;-69
2024/03/22 02:45:16;;;;;;;24.95;12.85;;;9.80;99.90;;;9.17;100.00;101982.75;4120809;28;20110;-69
2024/03/22 02:47:16;;;;;;;34.40;13.52;;;9.80;99.90;;;9.18;100.00;101981.81;4120565;28;20034;-69
2024/03/22 02:49:17;;;;;;;24.45;12.07;;;9.80;99.90;;;9.19;100.00;101975.59;4119755;28;20019;-69
2024/03/22 02:51:18;;;;;;;75.95;15.30;;;9.80;99.90;;;9.23;100.00;101970.91;4120691;28;20035;-69
2024/03/22 02:53:19;;;;;;;31.10;11.52;;;9.80;99.90;;;9.21;100.00;101964.94;4120422;28;20022;-69
2024/03/22 02:55:20;;;;;;;44.67;12.73;;;9.80;99.90;;;9.21;100.00;101965.78;4120504;28;20395;-69
2024/03/22 02:57:21;;;;;;;37.75;12.95;;;9.80;99.90;;;9.22;100.00;101958.72;4120636;28;20027;-69
2024/03/22 02:59:25;;;;;;;22.45;10.98;;;9.80;99.90;;;9.25;100.00;101956.72;4120698;28;20360;-69
2024/03/22 03:01:26;;;;;;;54.17;14.25;;;9.90;99.90;;;9.23;100.00;101947.22;4119424;28;20023;-69
2024/03/22 03:03:27;;;;;;;73.10;13.23;;;9.80;99.90;;;9.22;100.00;101938.50;4120424;28;20034;-69
2024/03/22 03:05:27;;;;;;;43.60;12.63;;;9.90;99.90;;;9.20;100.00;101943.03;4120564;28;20027;-69
2024/03/22 03:07:28;;;;;;;32.75;12.48;;;9.80;99.90;;;9.20;100.00;101940.41;4119311;28;20035;-69
2024/03/22 03:09:29;;;;;;;19.13;11.65;;;9.80;99.90;;;9.22;100.00;101948.19;4118892;28;20448;-69
2024/03/22 03:11:30;;;;;;;23.75;10.80;;;9.80;99.90;;;9.22;100.00;101942.94;4120212;28;20026;-69
2024/03/22 03:13:31;;;;;;;15.90;10.70;;;9.80;99.90;;;9.23;100.00;101944.59;4120395;28;20023;-69
2024/03/22 03:15:32;;;;;;;36.08;11.35;;;9.80;99.90;;;9.22;100.00;101938.50;4120612;28;20078;-69
2024/03/22 03:17:32;;;;;;;15.13;10.43;;;9.80;99.90;;;9.24;100.00;101935.75;4120303;28;20034;-69
2024/03/22 03:19:33;;;;;;;19.20;12.07;;;9.80;99.90;;;9.25;100.00;101932.16;4120269;28;20117;-69
2024/03/22 03:21:34;;;;;;;38.83;13.90;;;9.80;99.90;;;9.24;100.00;101933.13;4118988;28;20031;-69
2024/03/22 03:23:35;;;;;;;80.53;16.25;;;9.80;99.90;;;9.24;100.00;101928.69;4120093;28;20037;-69
2024/03/22 03:25:36;;;;;;;39.33;13.20;;;9.90;99.90;;;9.22;100.00;101933.25;4119127;28;20023;-69
2024/03/22 03:27:37;;;;;;;22.77;11.80;;;9.90;99.90;;;9.24;100.00;101928.69;4120206;28;20038;-69
2024/03/22 03:29:38;;;;;;;49.45;15.23;;;9.80;99.90;;;9.22;100.00;101919.25;4119978;28;20030;-69
2024/03/22 03:31:38;;;;;;;54.25;15.00;;;9.90;99.90;;;9.18;100.00;101910.72;4118779;28;20046;-69
2024/03/22 03:33:39;;;;;;;52.42;14.15;;;9.80;99.90;;;9.20;100.00;101903.53;4120304;28;20030;-69
2024/03/22 03:35:44;;;;;;;74.15;14.75;;;9.80;99.90;;;9.20;100.00;101900.91;4119070;28;20027;-69
2024/03/22 03:37:45;;;;;;;33.63;12.73;;;9.80;99.90;;;9.22;100.00;101898.19;4119880;28;20019;-69
2024/03/22 03:39:46;;;;;;;22.95;12.60;;;9.80;99.90;;;9.23;100.00;101900.69;4119933;28;20031;-69
2024/03/22 03:41:47;;;;;;;31.13;11.07;;;9.90;99.90;;;9.24;100.00;101896.25;4118699;28;20023;-69
2024/03/22 03:43:48;;;;;;;87.70;13.82;;;9.90;99.90;;;9.28;100.00;101901.19;4134970;28;20042;-69
2024/03/22 03:45:49;;;;;;;66.10;15.30;;;9.90;99.90;;;9.26;100.00;101894.34;4119905;28;20491;-69
2024/03/22 03:47:49;;;;;;;123.10;17.40;;;9.90;99.90;;;9.24;100.00;101901.53;4118999;28;20035;-69
2024/03/22 03:49:52;;;;;;;15.00;10.65;;;9.90;99.90;;;9.22;100.00;101903.44;4120055;28;20033;-69
2024/03/22 03:51:52;;;;;;;45.10;12.52;;;9.90;99.90;;;9.21;100.00;101894.72;4119996;28;20019;-69
2024/03/22 03:53:53;;;;;;;38.95;12.30;;;9.80;99.90;;;9.24;100.00;101897.09;4118500;28;20027;-69
2024/03/22 03:55:54;;;;;;;35.17;13.75;;;9.90;99.90;;;9.22;100.00;101892.91;4123050;28;20031;-69
2024/03/22 03:57:55;;;;;;;36.67;12.63;;;9.90;99.90;;;9.23;100.00;101895.41;4125413;28;20038;-69
2024/03/22 03:59:56;;;;;;;38.05;13.18;;;9.90;99.90;;;9.24;100.00;101902.38;4125226;28;20031;-69
2024/03/22 04:01:57;;;;;;;32.13;13.68;;;9.90;99.90;;;9.23;100.00;101895.41;4123834;28;20034;-69
2024/03/22 04:03:57;;;;;;;20.00;10.93;;;9.90;99.90;;;9.23;100.00;101891.94;4114177;28;20023;-69
2024/03/22 04:05:59;;;;;;;72.18;14.40;;;9.90;99.90;;;9.24;100.00;101891.00;4125283;28;20031;-69
2024/03/22 04:08:00;;;;;;;45.13;13.55;;;9.90;99.90;;;9.18;100.00;101888.84;4125070;28;20085;-69
2024/03/22 04:10:00;;;;;;;30.95;12.23;;;9.80;99.90;;;9.15;100.00;101886.44;4124953;28;20432;-69
2024/03/22 04:12:01;;;;;;;31.45;11.15;;;9.80;99.90;;;9.14;100.00;101896.13;4125246;28;20023;-69
2024/03/22 04:14:02;;;;;;;20.27;9.57;;;9.80;99.90;;;9.15;100.00;101889.06;4123061;28;20031;-69
2024/03/22 04:16:03;;;;;;;22.92;11.23;;;9.80;99.90;;;9.10;100.00;101897.34;4125291;28;20034;-69
2024/03/22 04:18:04;;;;;;;32.17;11.85;;;9.70;99.90;;;9.03;100.00;101882.13;4125072;28;20041;-69
2024/03/22 04:20:07;;;;;;;36.72;12.73;;;9.70;99.90;;;9.01;100.00;101887.53;4123901;28;20525;-69
2024/03/22 04:22:07;;;;;;;43.15;12.60;;;9.70;99.90;;;8.95;100.00;101885.34;4125183;28;20062;-69
2024/03/22 04:24:08;;;;;;;75.55;12.35;;;9.60;99.90;;;8.95;100.00;101890.63;4124971;28;20069;-69
2024/03/22 04:26:09;;;;;;;29.45;9.98;;;9.60;99.90;;;8.95;100.00;101892.41;4125039;28;20030;-69
2024/03/22 04:28:10;;;;;;;50.80;11.80;;;9.60;99.90;;;8.93;100.00;101889.06;4125122;28;20026;-69
2024/03/22 04:30:11;;;;;;;23.40;9.88;;;9.60;99.90;;;8.95;100.00;101884.50;4125015;28;20062;-69
2024/03/22 04:32:12;;;;;;;26.65;10.77;;;9.60;99.90;;;8.87;100.00;101888.56;4124811;28;20051;-69
2024/03/22 04:34:13;;;;;;;41.35;10.43;;;9.50;99.90;;;8.75;100.00;101878.16;4125039;28;20033;-69
2024/03/22 04:36:15;;;;;;;58.75;11.25;;;9.50;99.90;;;8.80;100.00;101890.00;4125035;28;20027;-69
2024/03/22 04:38:16;;;;;;;54.78;12.00;;;9.50;99.90;;;8.81;100.00;101889.03;4123624;28;20538;-69
2024/03/22 04:40:16;;;;;;;45.80;11.98;;;9.50;99.90;;;8.80;100.00;101873.38;4124876;28;20106;-69
2024/03/22 04:42:17;;;;;;;33.83;9.43;;;9.50;99.90;;;8.80;100.00;101881.25;4124629;28;20031;-69
2024/03/22 04:44:18;;;;;;;58.72;11.73;;;9.50;99.90;;;8.76;100.00;101885.06;4123169;28;20034;-69
2024/03/22 04:46:19;;;;;;;30.33;10.73;;;9.50;99.90;;;8.71;100.00;101877.53;4124959;28;20030;-69
2024/03/22 04:48:22;;;;;;;35.33;10.90;;;9.40;99.90;;;8.74;100.00;101881.72;4124935;28;20019;-69
2024/03/22 04:50:22;;;;;;;17.88;9.40;;;9.40;99.90;;;8.75;100.00;101894.75;4123624;28;20031;-69
2024/03/22 04:52:23;;;;;;;46.05;11.77;;;9.40;99.90;;;8.72;100.00;101894.97;4124650;28;20155;-69
2024/03/22 04:54:24;;;;;;;26.25;9.15;;;9.40;99.90;;;8.73;100.00;101886.16;4123613;28;20082;-69
2024/03/22 04:56:25;;;;;;;22.23;9.82;;;9.40;99.90;;;8.74;100.00;101879.94;4124959;28;20018;-69
2024/03/22 04:58:26;;;;;;;20.73;9.65;;;9.40;99.90;;;8.76;100.00;101883.28;4123638;28;20035;-69
2024/03/22 05:00:28;;;;;;;19.98;9.88;;;9.40;99.90;;;8.76;100.00;101885.06;4124409;28;20494;-69
2024/03/22 05:02:29;;;;;;;13.52;9.57;;;9.40;99.90;;;8.76;100.00;101885.91;4124826;28;20031;-69
2024/03/22 05:04:30;;;;;;;18.98;9.88;;;9.40;99.90;;;8.80;100.00;101889.16;4124896;28;20023;-69
2024/03/22 05:06:31;;;;;;;22.85;9.93;;;9.40;99.90;;;8.81;100.00;101891.66;4124260;28;20034;-69
2024/03/22 05:08:32;;;;;;;39.25;11.27;;;9.40;99.90;;;8.81;100.00;101896.91;4122174;28;20023;-69
2024/03/22 05:10:33;;;;;;;23.85;10.68;;;9.40;99.90;;;8.77;100.00;101895.50;4122028;28;20045;-69
2024/03/22 05:12:34;;;;;;;18.25;8.98;;;9.40;99.90;;;8.76;100.00;101899.06;4122207;28;20030;-69
2024/03/22 05:14:35;;;;;;;22.08;9.85;;;9.40;99.90;;;8.77;100.00;101892.84;4121019;28;20026;-69
2024/03/22 05:16:36;;;;;;;40.10;11.02;;;9.40;99.90;;;8.77;100.00;101892.00;4122055;28;20022;-69
2024/03/22 05:18:37;;;;;;;14.50;8.75;;;9.40;99.90;;;8.76;100.00;101891.19;4122230;28;20491;-69
2024/03/22 05:20:38;;;;;;;21.98;8.68;;;9.40;99.90;;;8.74;100.00;101893.09;4121988;28;20027;-69
2024/03/22 05:22:38;;;;;;;19.13;9.18;;;9.40;99.90;;;8.73;100.00;101896.66;4122020;28;20034;-69
2024/03/22 05:24:39;;;;;;;64.70;10.52;;;9.40;99.90;;;8.72;100.00;101883.66;4120488;28;20023;-69
2024/03/22 05:26:40;;;;;;;15.40;8.70;;;9.40;99.90;;;8.70;100.00;101883.75;4122081;28;20031;-69
2024/03/22 05:28:41;;;;;;;14.27;8.30;;;9.40;99.90;;;8.70;100.00;101885.53;4122020;28;20037;-69
2024/03/22 05:30:42;;;;;;;53.10;10.82;;;9.40;99.90;;;8.65;100.00;101882.41;4121819;28;20454;-69
2024/03/22 05:32:42;;;;;;;33.80;10.15;;;9.30;99.90;;;8.64;100.00;101876.31;4121303;28;20105;-69
2024/03/22 05:34:43;;;;;;;15.88;9.10;;;9.30;99.90;;;8.66;100.00;101879.66;4121974;28;20031;-69
2024/03/22 05:36:46;;;;;;;20.33;10.18;;;9.30;99.90;;;8.62;100.00;101894.00;4136739;28;20509;-69
2024/03/22 05:38:47;;;;;;;27.58;10.07;;;9.30;99.90;;;8.52;100.00;101893.00;4121471;28;20026;-69
2024/03/22 05:40:47;;;;;;;13.68;8.80;;;9.30;99.90;;;8.55;100.00;101892.78;4121593;28;20465;-70
2024/03/22 05:42:48;;;;;;;16.48;8.32;;;9.20;99.90;;;8.58;100.00;101889.09;4121870;28;20433;-70
2024/03/22 05:44:49;;;;;;;13.70;8.38;;;9.20;99.90;;;8.57;100.00;101880.34;4120642;28;20027;-69
2024/03/22 05:46:50;;;;;;;17.35;9.05;;;9.20;99.90;;;8.56;100.00;101875.22;4121677;28;20035;-69
2024/03/22 05:48:52;;;;;;;21.80;9.80;;;9.20;99.90;;;8.58;100.00;101876.78;4120385;28;20475;-69
2024/03/22 05:50:52;;;;;;;37.10;10.85;;;9.20;99.90;;;8.56;100.00;101873.44;4121716;28;20027;-69
2024/03/22 05:52:53;;;;;;;22.33;9.15;;;9.20;99.90;;;8.58;100.00;101871.53;4120158;28;20467;-69
2024/03/22 05:54:55;;;;;;;38.85;10.70;;;9.20;99.90;;;8.57;100.00;101874.28;4120290;28;20019;-69
2024/03/22 05:56:56;;;;;;;32.88;9.43;;;9.20;99.90;;;8.57;100.00;101869.84;4121657;28;20034;-69
2024/03/22 05:58:57;;;;;;;14.55;8.80;;;9.20;99.90;;;8.58;100.00;101876.78;4120184;28;20019;-69
2024/03/22 06:00:58;;;;;;;19.17;10.13;;;9.20;99.90;;;8.57;100.00;101861.94;4121617;28;20061;-69
2024/03/22 06:02:59;;;;;;;24.98;10.60;;;9.20;99.90;;;8.62;100.00;101861.63;4120411;28;20026;-69
2024/03/22 06:05:00;;;;;;;34.03;11.13;;;9.30;99.90;;;8.63;100.00;101864.09;4121492;28;20027;-69
2024/03/22 06:07:03;;;;;;;26.20;10.70;;;9.20;99.90;;;8.63;100.00;101866.75;4119601;28;20518;-69
2024/03/22 06:09:08;;;;;;;23.35;9.65;;;9.30;99.90;;;8.64;100.00;101865.78;4121131;28;20073;-69
2024/03/22 06:11:09;;;;;;;28.35;10.82;;;9.30;99.90;;;8.65;100.00;101861.38;4136184;28;20413;-69
2024/03/22 06:13:10;;;;;;;18.35;8.93;;;9.30;99.90;;;8.64;100.00;101860.53;4118032;28;20038;-69
2024/03/22 06:15:11;;;;;;;56.42;11.60;;;9.30;99.90;;;8.66;100.00;101852.53;4119783;28;20023;-69
2024/03/22 06:17:12;;;;;;;29.40;10.02;;;9.30;99.90;;;8.67;100.00;101854.19;4121339;28;20042;-69
2024/03/22 06:19:13;;;;;;;26.05;8.80;;;9.30;99.90;;;8.72;100.00;101859.97;4119432;28;20093;-69
2024/03/22 06:21:21;;;;;;;51.70;11.65;;;9.30;99.90;;;8.73;100.00;101848.47;4121161;28;20049;-69
2024/03/22 06:23:22;;;;;;;54.00;12.65;;;9.30;99.90;;;8.74;100.00;101851.00;4119916;28;20033;-70
2024/03/22 06:25:23;;;;;;;64.15;11.52;;;9.30;99.90;;;8.73;100.00;101849.31;4113432;28;20487;-70
2024/03/22 06:27:24;;;;;;;26.83;10.70;;;9.30;99.90;;;8.73;100.00;101851.94;4114652;28;20034;-69
2024/03/22 06:29:25;;;;;;;26.15;10.30;;;9.40;99.90;;;8.78;100.00;101847.16;4119586;28;20023;-69
2024/03/22 06:31:26;;;;;;;46.90;11.88;;;9.40;99.90;;;8.80;100.00;101845.28;4121056;28;20030;-69
2024/03/22 06:33:27;;;;;;;97.10;13.57;;;9.40;99.90;;;8.77;100.00;101848.13;4120714;28;20047;-69
2024/03/22 06:35:28;;;;;;;51.08;11.73;;;9.40;99.90;;;8.75;100.00;101842.13;4119504;28;20019;-69
2024/03/22 06:37:29;;;;;;;53.60;10.90;;;9.40;99.90;;;8.67;100.00;101849.78;4120758;28;20031;-69
2024/03/22 06:39:30;;;;;;;39.33;10.02;;;9.40;99.90;;;8.59;100.00;101841.66;4119566;28;20015;-69
2024/03/22 06:41:31;;;;;;;42.97;10.95;;;9.30;99.90;;;8.66;100.00;101842.84;4120919;28;20151;-69
2024/03/22 06:43:31;;;;;;;63.78;11.10;;;9.30;99.90;;;8.71;100.00;101834.59;4120856;28;20533;-68
2024/03/22 06:45:32;;;;;;;35.47;10.18;;;9.30;99.90;;;8.75;100.00;101828.97;4120805;28;20043;-69
2024/03/22 06:47:33;;;;;;;12.48;7.85;;;9.40;99.90;;;8.82;100.00;101835.47;4120807;28;20019;-69
2024/03/22 06:49:34;;;;;;;35.65;9.23;;;9.40;99.90;;;8.87;100.00;101843.81;4120749;28;20022;-69
2024/03/22 06:51:36;;;;;;;45.30;10.82;;;9.50;99.90;;;8.90;100.00;101840.97;4120774;28;20106;-69
2024/03/22 06:53:37;;;;;;;93.28;13.02;;;9.50;99.90;;;8.87;100.00;101846.47;4120454;28;20170;-69
2024/03/22 06:55:38;;;;;;;101.28;12.20;;;9.50;99.90;;;8.86;100.00;101842.16;4120572;28;20030;-69
2024/03/22 06:57:38;;;;;;;30.50;10.73;;;9.50;99.90;;;8.86;100.00;101847.44;4120865;28;20045;-69
2024/03/22 06:59:39;;;;;;;32.00;9.90;;;9.50;99.90;;;8.92;100.00;101842.66;4120593;28;20027;-69
2024/03/22 07:01:40;;;;;;;44.85;11.18;;;9.50;99.90;;;9.00;100.00;101838.47;4120560;28;20033;-69
2024/03/22 07:03:45;;;;;;;84.65;11.77;;;9.60;99.90;;;9.04;100.00;101839.91;4120348;28;20086;-69
2024/03/22 07:05:47;;;;;;;137.90;15.48;;;9.60;99.90;;;9.09;100.00;101844.81;4120575;28;20019;-69
2024/03/22 07:07:50;;;;;;;143.00;14.05;;;9.60;99.90;;;9.10;100.00;101852.59;4119139;28;20030;-69
2024/03/22 07:09:51;;;;;;;32.95;10.02;;;9.70;99.90;;;9.10;100.00;101846.47;4120257;28;20483;-69
2024/03/22 07:11:52;;;;;;;112.55;12.05;;;9.70;99.90;;;9.12;100.00;101847.19;4119211;28;20046;-69
2024/03/22 07:13:53;;;;;;;33.50;8.15;;;9.80;99.90;;;9.14;100.00;101848.75;4120447;28;20023;-69
2024/03/22 07:15:53;;;;;;;14.23;7.45;;;9.80;99.90;;;9.14;100.00;101866.34;4120158;28;20034;-69
2024/03/22 07:17:54;;;;;;;31.27;9.02;;;9.80;99.90;;;9.14;100.00;101866.34;4120330;28;20407;-69
2024/03/22 07:19:57;;;;;;;39.78;9.65;;;9.80;99.90;;;9.18;100.00;101865.97;4119233;28;20624;-69
2024/03/22 07:21:59;;;;;;;90.53;13.48;;;9.80;99.90;;;9.21;100.00;101860.47;4120010;28;20049;-68
2024/03/22 07:24:00;;;;;;;39.50;9.73;;;9.80;99.90;;;9.25;100.00;101861.94;4118613;28;20037;-68
2024/03/22 07:26:01;;;;;;;11.45;6.80;;;9.90;99.90;;;9.31;100.00;101868.50;4119926;28;20483;-68
2024/03/22 07:28:02;;;;;;;23.65;8.90;;;10.00;99.90;;;9.29;100.00;101850.19;4120439;28;20026;-68
2024/03/22 07:30:04;;;;;;;28.67;9.13;;;10.00;99.90;;;9.28;100.00;101855.56;4119577;28;20130;-68
2024/03/22 07:32:05;;;;;;;13.63;7.88;;;10.00;99.90;;;9.33;100.00;101856.03;4119931;28;20133;-68
2024/03/22 07:34:06;;;;;;;34.55;9.45;;;10.00;99.90;;;9.33;100.00;101856.88;4119090;28;20023;-68
2024/03/22 07:36:07;;;;;;;66.50;11.15;;;10.00;99.90;;;9.32;100.00;101864.88;4120017;28;20038;-69
2024/03/22 07:38:08;;;;;;;33.65;9.32;;;9.90;99.90;;;9.13;100.00;101857.63;4119970;28;20023;-69
2024/03/22 07:40:09;;;;;;;54.47;9.65;;;9.80;99.90;;;9.16;100.00;101853.91;4120092;28;20082;-69
2024/03/22 07:42:10;;;;;;;31.45;9.38;;;9.80;99.90;;;9.20;100.00;101861.44;4118918;28;20090;-69
2024/03/22 07:44:11;;;;;;;59.17;11.38;;;9.80;99.90;;;9.26;100.00;101868.84;4119964;28;20035;-69
2024/03/22 07:46:12;;;;;;;43.45;9.50;;;9.80;99.90;;;9.14;100.00;101864.53;4120145;28;20038;-68
2024/03/22 07:48:13;;;;;;;54.40;9.63;;;9.80;99.90;;;9.13;100.00;101867.31;4118877;28;20035;-69
2024/03/22 07:50:13;;;;;;;22.38;8.93;;;9.90;99.90;;;9.16;100.00;101869.69;4119985;28;20031;-69
2024/03/22 07:52:14;;;;;;;15.85;7.57;;;9.80;99.90;;;9.22;100.00;101874.50;4120047;28;20030;-69
2024/03/22 07:54:15;;;;;;;13.93;8.05;;;9.80;99.90;;;9.22;100.00;101869.22;4119839;28;20545;-69
2024/03/22 07:56:16;;;;;;;34.65;8.50;;;9.90;99.90;;;9.42;100.00;101876.38;4120113;28;20061;-69
2024/03/22 07:58:17;;;;;;;23.58;7.70;;;9.90;99.90;;;9.53;100.00;101870.28;4120046;28;20031;-68
2024/03/22 08:00:18;;;;;;;30.33;9.57;;;10.00;99.90;;;9.60;100.00;101872.31;4119794;28;20030;-68
2024/03/22 08:02:19;;;;;;;22.48;9.30;;;10.10;99.90;;;9.63;100.00;101877.31;4120210;28;20066;-69
2024/03/22 08:04:20;;;;;;;23.30;9.40;;;10.20;99.90;;;9.67;100.00;101872.66;4119973;28;20027;-69
2024/03/22 08:06:21;;;;;;;36.65;9.35;;;10.20;99.90;;;9.59;100.00;101883.78;4118847;28;20031;-69
2024/03/22 08:08:22;;;;;;;19.67;9.10;;;10.30;99.90;;;9.47;100.00;101889.22;4104465;28;20078;-69
2024/03/22 08:10:23;;;;;;;31.73;9.23;;;10.20;99.90;;;9.53;100.00;101884.28;4113827;28;20039;-68
2024/03/22 08:12:24;;;;;;;23.67;9.00;;;10.20;99.90;;;9.61;100.00;101887.16;4119783;28;20086;-69
2024/03/22 08:14:25;;;;;;;40.47;9.65;;;10.20;99.90;;;9.75;100.00;101892.16;4117132;28;20403;-69
2024/03/22 08:16:26;;;;;;;13.23;7.90;;;10.30;99.90;;;9.72;100.00;101891.56;4110148;28;20034;-71
2024/03/22 08:18:27;;;;;;;14.55;8.13;;;10.30;99.90;;;9.76;100.00;101893.84;4107421;28;20033;-71